Time;durP1;ratioP1;P1;durP2;ratioP2;P2;SDS_P1;SDS_P2;PMS_P1;PMS_P2;Temp;Humidity;BMP_temperature;BMP_pressure;BME280_temperature;BME280_humidity;BME280_pressure;Samples;Min_cycle;Max_cycle;Signal;HPM_P1;HPM_P2
2024/02/09 20:47:08;;;;;;;27.70;22.20;;;;;;;;;;5035585;28;20310;-78
2024/02/09 20:49:38;;;;;;;28.77;25.37;;;;;;;;;;5003175;28;20246;-78
2024/02/09 20:52:07;;;;;;;19.57;17.50;;;;;;;;;;4997603;28;20221;-76
2024/02/09 20:54:39;;;;;;;19.30;16.83;;;;;;;;;;5003178;28;20284;-77
2024/02/09 20:57:08;;;;;;;25.07;22.50;;;;;;;;;;4950522;28;20225;-78
2024/02/09 20:59:40;;;;;;;35.83;29.73;;;;;;;;;;4971418;28;20217;-77
2024/02/09 21:02:08;;;;;;;27.67;24.73;;;;;;;;;;4981687;28;20229;-77
2024/02/09 21:04:36;;;;;;;34.47;29.03;;;;;;;;;;4967070;28;20226;-78
2024/02/09 21:07:05;;;;;;;32.77;27.03;;;;;;;;;;4977088;28;20721;-77
2024/02/09 21:09:31;;;;;;;25.70;23.03;;;;;;;;;;4966520;28;20221;-77
2024/02/09 21:11:57;;;;;;;26.23;22.70;;;;;;;;;;4964438;28;20786;-78
2024/02/09 21:14:25;;;;;;;31.20;26.93;;;;;;;;;;4994496;28;20233;-78
2024/02/09 21:16:53;;;;;;;26.27;22.80;;;;;;;;;;4965590;28;20232;-77
2024/02/09 21:19:21;;;;;;;24.07;21.33;;;;;;;;;;4985279;28;20240;-78
2024/02/09 21:21:49;;;;;;;28.73;22.87;;;;;;;;;;4993681;28;20229;-77
2024/02/09 21:24:14;;;;;;;24.63;21.57;;;;;;;;;;4966271;28;20796;-77
2024/02/09 21:26:40;;;;;;;30.13;24.67;;;;;;;;;;4967085;28;20229;-77
2024/02/09 21:29:09;;;;;;;31.73;26.67;;;;;;;;;;4982677;28;20233;-77
2024/02/09 21:31:39;;;;;;;36.83;27.07;;;;;;;;;;4967419;28;20717;-78
2024/02/09 21:34:05;;;;;;;45.20;28.70;;;;;;;;;;4950094;28;20314;-77
2024/02/09 21:36:36;;;;;;;71.10;40.07;;;;;;;;;;4966694;28;20221;-78
2024/02/09 21:39:05;;;;;;;57.90;40.70;;;;;;;;;;4980944;28;20226;-77
2024/02/09 21:41:33;;;;;;;190.33;44.23;;;;;;;;;;5014066;28;20265;-78
2024/02/09 21:44:02;;;;;;;66.97;27.07;;;;;;;;;;4983867;28;20233;-78
2024/02/09 21:46:29;;;;;;;26.73;23.67;;;;;;;;;;5014253;28;20244;-79
2024/02/09 21:48:59;;;;;;;59.97;24.93;;;;;;;;;;4986466;28;20240;-77
2024/02/09 21:51:27;;;;;;;36.53;25.33;;;;;;;;;;5032825;28;20229;-78
2024/02/09 21:53:55;;;;;;;33.80;26.27;;;;;;;;;;5001472;28;20283;-77
2024/02/09 21:56:22;;;;;;;43.70;28.17;;;;;;;;;;5000031;28;20228;-78
2024/02/09 21:58:50;;;;;;;42.33;25.43;;;;;;;;;;4973742;28;20260;-78
2024/02/09 22:01:16;;;;;;;157.40;28.40;;;;;;;;;;4985581;28;20640;-76
2024/02/09 22:03:46;;;;;;;32.30;24.27;;;;;;;;;;4974403;28;20308;-78
2024/02/09 22:06:18;;;;;;;35.00;24.77;;;;;;;;;;5002623;28;20249;-78
2024/02/09 22:08:49;;;;;;;36.23;25.23;;;;;;;;;;4989220;28;20221;-76
2024/02/09 22:11:16;;;;;;;30.53;24.30;;;;;;;;;;4999478;28;20618;-78
2024/02/09 22:13:46;;;;;;;28.13;22.57;;;;;;;;;;4973837;28;20224;-78
2024/02/09 22:16:11;;;;;;;29.00;22.50;;;;;;;;;;4996006;28;20225;-78
2024/02/09 22:18:42;;;;;;;31.23;23.67;;;;;;;;;;4973262;28;20695;-76
2024/02/09 22:21:08;;;;;;;36.10;25.37;;;;;;;;;;4971345;28;20225;-78
2024/02/09 22:23:41;;;;;;;34.53;25.80;;;;;;;;;;5004520;28;20232;-78
2024/02/09 22:26:07;;;;;;;34.37;24.67;;;;;;;;;;4989024;28;20237;-78
2024/02/09 22:28:33;;;;;;;31.57;24.20;;;;;;;;;;4999626;28;20221;-78
2024/02/09 22:31:03;;;;;;;36.90;25.87;;;;;;;;;;4984316;28;20226;-77
2024/02/09 22:33:31;;;;;;;53.20;27.47;;;;;;;;;;4972718;28;20316;-77
2024/02/09 22:36:02;;;;;;;57.40;27.77;;;;;;;;;;4987920;28;20226;-78
2024/02/09 22:38:31;;;;;;;36.60;25.17;;;;;;;;;;5020156;28;20229;-79
2024/02/09 22:40:56;;;;;;;32.40;24.50;;;;;;;;;;5006660;28;20226;-78
2024/02/09 22:43:25;;;;;;;36.77;25.07;;;;;;;;;;4972247;28;20225;-78
2024/02/09 22:45:58;;;;;;;35.97;25.80;;;;;;;;;;4980460;28;20236;-77
2024/02/09 22:48:27;;;;;;;36.73;26.47;;;;;;;;;;4984608;28;20226;-76
2024/02/09 22:50:59;;;;;;;33.70;26.37;;;;;;;;;;5014936;28;20577;-76
2024/02/09 22:53:24;;;;;;;37.43;26.37;;;;;;;;;;5016297;28;20244;-77
2024/02/09 22:55:57;;;;;;;36.10;26.13;;;;;;;;;;5022454;28;20843;-75
2024/02/09 22:58:30;;;;;;;41.23;25.93;;;;;;;;;;5006911;28;20220;-77
2024/02/09 23:01:02;;;;;;;42.00;26.17;;;;;;;;;;4987263;28;20219;-76
2024/02/09 23:03:27;;;;;;;36.07;25.00;;;;;;;;;;4986648;28;20220;-77
2024/02/09 23:05:53;;;;;;;258.63;32.80;;;;;;;;;;5023159;28;20238;-76
2024/02/09 23:08:22;;;;;;;85.67;30.50;;;;;;;;;;5054218;28;20280;-76
2024/02/09 23:10:47;;;;;;;249.23;33.80;;;;;;;;;;4991284;28;20252;-76
2024/02/09 23:13:17;;;;;;;52.67;27.67;;;;;;;;;;5039763;28;20227;-75
2024/02/09 23:15:43;;;;;;;38.13;27.40;;;;;;;;;;5038399;28;20220;-74
2024/02/09 23:18:14;;;;;;;40.13;27.90;;;;;;;;;;5039199;28;21034;-75
2024/02/09 23:20:44;;;;;;;54.30;28.40;;;;;;;;;;5021702;28;20303;-75
2024/02/09 23:23:12;;;;;;;51.47;29.60;;;;;;;;;;5026621;28;20220;-76
2024/02/09 23:25:40;;;;;;;59.57;30.00;;;;;;;;;;5021714;28;20600;-77
2024/02/09 23:28:10;;;;;;;58.77;29.90;;;;;;;;;;5024152;28;20243;-76
2024/02/09 23:30:36;;;;;;;543.00;44.87;;;;;;;;;;5037768;28;20227;-75
2024/02/09 23:33:02;;;;;;;39.73;28.27;;;;;;;;;;5039562;28;20597;-77
2024/02/09 23:35:30;;;;;;;38.90;26.83;;;;;;;;;;5031846;28;21174;-76
2024/02/09 23:38:01;;;;;;;36.23;27.43;;;;;;;;;;5022317;28;20588;-76
2024/02/09 23:40:29;;;;;;;48.87;29.07;;;;;;;;;;5037055;28;20228;-75
2024/02/09 23:42:59;;;;;;;38.33;28.33;;;;;;;;;;5022217;28;20226;-76
2024/02/09 23:45:28;;;;;;;47.93;27.97;;;;;;;;;;5038507;28;20273;-76
2024/02/09 23:47:56;;;;;;;45.73;27.20;;;;;;;;;;5021728;28;20713;-76
2024/02/09 23:50:26;;;;;;;113.43;29.30;;;;;;;;;;5014340;28;20220;-75
2024/02/09 23:52:52;;;;;;;42.50;28.67;;;;;;;;;;5037225;28;20216;-75
2024/02/09 23:55:21;;;;;;;37.13;25.87;;;;;;;;;;5032869;28;20815;-75
2024/02/09 23:57:46;;;;;;;194.93;35.63;;;;;;;;;;5033674;28;20282;-76
